createdAt,value
2018-08-03T00:02:02.721Z,21.70
2018-08-03T00:04:31.366Z,21.70
2018-08-03T00:07:00.028Z,21.70
2018-08-03T00:09:28.604Z,21.70
2018-08-03T00:11:57.214Z,21.70
2018-08-03T00:14:25.902Z,21.60
2018-08-03T00:16:54.547Z,21.60
2018-08-03T00:19:23.159Z,21.50
2018-08-03T00:21:51.773Z,21.50
2018-08-03T00:24:20.326Z,21.40
2018-08-03T00:26:48.961Z,21.40
2018-08-03T00:29:17.550Z,21.40
2018-08-03T00:31:46.205Z,21.40
2018-08-03T00:34:14.863Z,21.50
2018-08-03T00:36:44.554Z,21.40
2018-08-03T00:39:13.168Z,21.40
2018-08-03T00:44:10.064Z,21.40
2018-08-03T00:46:38.584Z,21.30
2018-08-03T00:49:07.233Z,21.20
2018-08-03T00:51:35.897Z,21.20
2018-08-03T00:54:04.803Z,21.10
2018-08-03T00:56:33.344Z,21.10
2018-08-03T00:59:01.921Z,21.00
2018-08-03T01:01:30.527Z,21.00
2018-08-03T01:03:59.089Z,21.00
2018-08-03T01:06:27.623Z,21.00
2018-08-03T01:08:56.209Z,21.00
2018-08-03T01:11:24.833Z,21.00
2018-08-03T01:13:53.435Z,21.10
2018-08-03T01:16:22.322Z,21.10
2018-08-03T01:18:50.990Z,21.20
2018-08-03T01:21:19.593Z,21.20
2018-08-03T01:23:48.188Z,21.20
2018-08-03T01:26:16.757Z,21.10
2018-08-03T01:28:45.401Z,21.00
2018-08-03T01:31:13.979Z,20.90
2018-08-03T01:33:42.651Z,20.90
2018-08-03T01:36:11.209Z,20.90
2018-08-03T01:38:39.828Z,20.90
2018-08-03T01:41:08.397Z,21.00
2018-08-03T01:43:36.996Z,21.00
2018-08-03T01:46:05.941Z,21.00
2018-08-03T01:48:34.552Z,21.00
2018-08-03T01:51:03.166Z,21.00
2018-08-03T01:53:31.781Z,21.00
2018-08-03T01:56:00.358Z,20.80
2018-08-03T01:58:28.955Z,20.70
2018-08-03T02:00:57.596Z,20.80
2018-08-03T02:03:26.298Z,20.80
2018-08-03T02:05:54.887Z,20.70
2018-08-03T02:08:23.457Z,20.70
2018-08-03T02:10:52.083Z,20.60
2018-08-03T02:13:20.739Z,20.70
2018-08-03T02:15:49.312Z,20.70
2018-08-03T02:18:18.473Z,20.80
2018-08-03T02:20:47.048Z,20.70
2018-08-03T02:23:15.683Z,20.70
2018-08-03T02:25:44.280Z,20.60
2018-08-03T02:28:12.877Z,20.70
2018-08-03T02:30:41.499Z,20.60
2018-08-03T02:33:10.123Z,20.70
2018-08-03T02:35:38.699Z,20.60
2018-08-03T02:38:07.335Z,20.60
2018-08-03T02:40:35.998Z,20.60
2018-08-03T02:43:04.722Z,20.50
2018-08-03T02:45:33.416Z,20.40
2018-08-03T02:48:01.990Z,20.40
2018-08-03T02:50:30.565Z,20.50
2018-08-03T02:52:59.174Z,20.50
2018-08-03T02:55:27.792Z,20.50
2018-08-03T02:57:56.408Z,20.50
2018-08-03T03:00:25.473Z,20.40
2018-08-03T03:02:54.026Z,20.40
2018-08-03T03:05:22.679Z,20.30
2018-08-03T03:07:51.265Z,20.20
2018-08-03T03:10:19.895Z,20.20
2018-08-03T03:12:48.481Z,20.10
2018-08-03T03:15:17.122Z,20.10
2018-08-03T03:17:45.727Z,20.10
2018-08-03T03:20:14.294Z,20.10
2018-08-03T03:22:42.903Z,20.10
2018-08-03T03:25:11.597Z,20.00
2018-08-03T03:27:40.185Z,19.90
2018-08-03T03:30:09.347Z,19.90
2018-08-03T03:32:38.057Z,19.90
2018-08-03T03:35:06.701Z,19.90
2018-08-03T03:40:03.649Z,19.80
2018-08-03T03:42:32.308Z,19.80
2018-08-03T03:45:00.970Z,19.80
2018-08-03T03:47:29.594Z,19.80
2018-08-03T03:49:58.150Z,19.90
2018-08-03T03:52:26.698Z,19.80
2018-08-03T03:54:55.402Z,19.80
2018-08-03T03:57:24.039Z,19.80
2018-08-03T03:59:52.625Z,19.90
2018-08-03T04:02:21.289Z,19.90
2018-08-03T04:04:49.939Z,20.00
2018-08-03T04:07:18.457Z,20.10
2018-08-03T04:09:47.104Z,20.30
2018-08-03T04:12:15.695Z,20.40
2018-08-03T04:14:44.281Z,20.30
2018-08-03T04:17:12.892Z,20.30
2018-08-03T04:19:41.428Z,20.10
2018-08-03T04:22:10.116Z,20.00
2018-08-03T04:24:38.833Z,20.00
2018-08-03T04:27:07.437Z,20.00
2018-08-03T04:29:36.073Z,20.00
2018-08-03T04:32:04.653Z,20.10
2018-08-03T04:34:33.283Z,20.20
2018-08-03T04:37:01.882Z,20.30
2018-08-03T04:39:30.505Z,20.40
2018-08-03T04:41:59.063Z,20.50
2018-08-03T04:44:27.735Z,20.60
2018-08-03T04:46:56.335Z,20.50
2018-08-03T04:49:25.027Z,20.50
2018-08-03T04:51:53.644Z,20.60
2018-08-03T04:54:22.309Z,20.50
2018-08-03T04:56:50.887Z,20.60
2018-08-03T05:01:47.708Z,20.70
2018-08-03T05:04:16.353Z,20.80
2018-08-03T05:06:45.042Z,20.90
2018-08-03T05:09:13.669Z,21.00
2018-08-03T05:11:42.269Z,21.00
2018-08-03T05:14:12.973Z,21.10
2018-08-03T05:16:41.633Z,21.20
2018-08-03T05:19:10.282Z,21.30
2018-08-03T05:21:38.837Z,21.40
2018-08-03T05:24:07.436Z,21.50
2018-08-03T05:26:36.026Z,21.50
2018-08-03T05:29:04.704Z,21.60
2018-08-03T05:31:33.313Z,21.60
2018-08-03T05:34:01.921Z,21.70
2018-08-03T05:36:30.482Z,21.80
2018-08-03T05:38:59.093Z,21.90
2018-08-03T05:41:27.618Z,22.00
2018-08-03T05:43:56.161Z,22.20
2018-08-03T05:46:24.778Z,22.30
2018-08-03T05:48:53.400Z,22.30
2018-08-03T05:51:22.023Z,22.40
2018-08-03T05:53:50.644Z,22.50
2018-08-03T05:56:19.233Z,22.60
2018-08-03T05:58:47.818Z,22.80
2018-08-03T06:01:16.510Z,22.80
2018-08-03T06:03:45.128Z,22.80
2018-08-03T06:06:13.889Z,22.80
2018-08-03T06:08:42.627Z,23.00
2018-08-03T06:11:11.249Z,23.10
2018-08-03T06:13:39.853Z,23.20
2018-08-03T06:16:08.520Z,23.20
2018-08-03T06:18:37.111Z,23.30
2018-08-03T06:21:05.731Z,23.40
2018-08-03T06:23:34.261Z,23.50
2018-08-03T06:26:02.910Z,23.60
2018-08-03T06:28:31.620Z,23.70
2018-08-03T06:31:00.285Z,23.80
2018-08-03T06:33:28.864Z,23.90
2018-08-03T06:35:57.707Z,23.90
2018-08-03T06:38:26.416Z,24.10
2018-08-03T06:40:55.003Z,24.10
2018-08-03T06:43:23.599Z,24.30
2018-08-03T06:45:52.194Z,24.30
2018-08-03T06:48:20.868Z,24.40
2018-08-03T06:50:49.436Z,24.40
2018-08-03T06:53:18.092Z,24.50
2018-08-03T06:55:46.692Z,24.60
2018-08-03T07:00:43.563Z,24.90
2018-08-03T07:03:12.235Z,25.10
2018-08-03T07:05:40.907Z,25.20
2018-08-03T07:08:09.451Z,25.40
2018-08-03T07:10:38.086Z,25.50
2018-08-03T07:13:06.690Z,25.50
2018-08-03T07:15:35.401Z,25.60
2018-08-03T07:18:04.029Z,25.70
2018-08-03T07:20:32.744Z,25.80
2018-08-03T07:23:01.231Z,25.90
2018-08-03T07:25:29.889Z,25.90
2018-08-03T07:27:58.440Z,26.10
2018-08-03T07:30:27.038Z,26.30
2018-08-03T07:32:55.685Z,26.30
2018-08-03T07:35:24.267Z,26.40
2018-08-03T07:37:52.993Z,26.40
2018-08-03T07:40:21.554Z,26.50
2018-08-03T07:42:50.224Z,26.50
2018-08-03T07:47:47.137Z,26.90
2018-08-03T07:50:15.757Z,26.90
2018-08-03T07:52:44.394Z,27.10
2018-08-03T07:55:12.967Z,27.30
2018-08-03T07:57:41.855Z,27.60
2018-08-03T08:00:10.410Z,27.70
2018-08-03T08:02:39.020Z,27.60
2018-08-03T08:05:07.705Z,27.60
2018-08-03T08:07:36.335Z,27.70
2018-08-03T08:10:05.850Z,27.90
2018-08-03T08:12:34.480Z,28.10
2018-08-03T08:15:03.051Z,28.40
2018-08-03T08:17:31.709Z,28.70
2018-08-03T08:20:00.249Z,28.90
2018-08-03T08:22:28.886Z,29.00
2018-08-03T08:24:58.086Z,29.20
2018-08-03T08:27:26.664Z,29.20
2018-08-03T08:29:55.228Z,29.30
2018-08-03T08:32:23.908Z,29.30
2018-08-03T08:39:48.988Z,29.70
2018-08-03T08:42:17.595Z,29.70
2018-08-03T08:44:46.153Z,29.90
2018-08-03T08:47:14.735Z,30.10
2018-08-03T08:49:43.376Z,30.10
2018-08-03T08:54:40.252Z,30.40
2018-08-03T08:57:08.842Z,30.40
2018-08-03T08:59:37.572Z,30.60
2018-08-03T09:02:06.503Z,30.80
2018-08-03T09:07:03.433Z,31.10
2018-08-03T09:09:31.985Z,31.10
2018-08-03T09:12:00.629Z,31.10
2018-08-03T09:14:29.247Z,31.20
2018-08-03T09:16:57.859Z,31.30
2018-08-03T09:19:26.562Z,31.50
2018-08-03T09:21:55.131Z,31.60
2018-08-03T09:24:23.906Z,31.80
2018-08-03T09:26:52.479Z,31.90
2018-08-03T09:29:21.289Z,32.10
2018-08-03T09:31:49.918Z,32.00
2018-08-03T09:34:18.544Z,32.00
2018-08-03T09:36:47.130Z,32.10
2018-08-03T09:39:15.816Z,32.00
2018-08-03T09:41:44.544Z,32.10
2018-08-03T09:44:13.285Z,32.20
2018-08-03T09:46:41.895Z,32.30
2018-08-03T09:49:10.603Z,32.30
2018-08-03T09:54:07.477Z,32.30
2018-08-03T09:56:36.259Z,32.40
2018-08-03T09:59:05.223Z,32.60
2018-08-03T10:01:33.790Z,32.50
2018-08-03T10:04:02.401Z,32.80
2018-08-03T10:06:30.927Z,33.10
2018-08-03T10:08:59.569Z,33.20
2018-08-03T10:11:28.191Z,33.20
2018-08-03T10:13:56.969Z,33.20
2018-08-03T10:16:25.686Z,33.30
2018-08-03T10:18:54.686Z,33.30
2018-08-03T10:21:23.281Z,33.00
2018-08-03T10:23:51.848Z,33.20
2018-08-03T10:26:20.491Z,33.50
2018-08-03T10:28:49.076Z,33.80
2018-08-03T10:31:17.693Z,34.00
2018-08-03T10:33:46.362Z,33.90
2018-08-03T10:36:15.046Z,33.90
2018-08-03T10:38:43.601Z,34.00
2018-08-03T10:41:13.259Z,34.30
2018-08-03T10:43:41.904Z,34.50
2018-08-03T10:46:10.856Z,34.60
2018-08-03T10:48:39.528Z,34.30
2018-08-03T10:51:08.328Z,34.40
2018-08-03T10:53:36.945Z,34.30
2018-08-03T10:56:05.663Z,34.50
2018-08-03T10:58:34.263Z,34.70
2018-08-03T11:01:02.805Z,34.60
2018-08-03T11:03:31.534Z,34.80
2018-08-03T11:06:00.090Z,35.00
2018-08-03T11:08:28.637Z,35.10
2018-08-03T11:10:57.276Z,35.20
2018-08-03T11:13:25.910Z,35.30
2018-08-03T11:15:54.465Z,35.30
2018-08-03T11:18:23.089Z,35.60
2018-08-03T11:20:51.662Z,35.80
2018-08-03T11:23:20.264Z,36.10
2018-08-03T11:25:48.848Z,36.10
2018-08-03T11:28:17.401Z,36.00
2018-08-03T11:30:46.021Z,36.30
2018-08-03T11:33:14.628Z,36.50
2018-08-03T11:35:43.207Z,36.70
2018-08-03T11:38:11.827Z,36.70
2018-08-03T11:40:40.462Z,36.80
2018-08-03T11:43:09.144Z,36.90
2018-08-03T11:45:37.732Z,36.90
2018-08-03T11:48:06.371Z,36.90
2018-08-03T11:50:35.006Z,37.20
2018-08-03T11:53:03.660Z,37.20
2018-08-03T11:55:32.301Z,37.30
2018-08-03T11:58:00.911Z,37.40
2018-08-03T12:00:29.680Z,37.40
2018-08-03T12:02:58.466Z,37.30
2018-08-03T12:05:27.064Z,37.50
2018-08-03T12:07:55.613Z,37.50
2018-08-03T12:10:24.339Z,37.60
2018-08-03T12:12:52.870Z,37.60
2018-08-03T12:15:21.549Z,37.60
2018-08-03T12:17:50.138Z,37.60
2018-08-03T12:20:18.763Z,37.70
2018-08-03T12:22:47.351Z,37.70
2018-08-03T12:25:16.027Z,37.90
2018-08-03T12:27:44.540Z,37.90
2018-08-03T12:30:13.144Z,38.00
2018-08-03T12:32:41.713Z,38.00
2018-08-03T12:35:10.385Z,37.90
2018-08-03T12:37:39.304Z,37.90
2018-08-03T12:40:07.922Z,37.90
2018-08-03T12:42:36.602Z,38.00
2018-08-03T12:45:05.385Z,37.90
2018-08-03T12:47:34.997Z,37.80
2018-08-03T12:50:03.713Z,37.70
2018-08-03T12:52:32.373Z,37.90
2018-08-03T12:55:00.997Z,38.10
2018-08-03T12:57:29.658Z,38.10
2018-08-03T12:59:58.309Z,37.80
2018-08-03T13:02:26.920Z,37.80
2018-08-03T13:04:55.669Z,37.90
2018-08-03T13:07:24.395Z,37.90
2018-08-03T13:09:53.040Z,37.80
2018-08-03T13:12:21.643Z,37.80
2018-08-03T13:17:19.639Z,37.90
2018-08-03T13:19:48.300Z,38.10
2018-08-03T13:24:51.370Z,38.60
2018-08-03T13:27:21.636Z,38.60
2018-08-03T13:29:50.279Z,38.60
2018-08-03T13:32:18.892Z,38.60
2018-08-03T13:34:47.541Z,38.80
2018-08-03T13:37:16.306Z,38.60
2018-08-03T13:39:44.960Z,38.60
2018-08-03T13:44:41.801Z,38.40
2018-08-03T13:47:10.491Z,38.10
2018-08-03T13:49:39.096Z,37.80
2018-08-03T13:52:07.757Z,37.50
2018-08-03T13:54:36.340Z,37.60
2018-08-03T13:57:05.335Z,37.80
2018-08-03T13:59:33.905Z,37.90
2018-08-03T14:02:13.688Z,37.90
2018-08-03T14:04:42.281Z,37.90
2018-08-03T14:07:10.858Z,38.10
2018-08-03T14:09:39.449Z,38.30
2018-08-03T14:12:08.168Z,38.10
2018-08-03T14:14:36.894Z,38.10
2018-08-03T14:17:05.656Z,38.00
2018-08-03T14:19:36.044Z,37.80
2018-08-03T14:22:05.210Z,37.70
2018-08-03T14:24:34.142Z,37.60
2018-08-03T14:27:03.393Z,37.60
2018-08-03T14:29:32.149Z,37.50
2018-08-03T14:32:00.820Z,37.60
2018-08-03T14:34:29.505Z,37.70
2018-08-03T14:36:58.267Z,37.90
2018-08-03T14:39:26.941Z,38.30
2018-08-03T14:41:55.527Z,38.40
2018-08-03T14:44:24.149Z,38.70
2018-08-03T14:46:52.817Z,38.90
2018-08-03T14:49:21.504Z,39.10
2018-08-03T14:51:50.196Z,39.30
2018-08-03T14:54:19.872Z,39.50
2018-08-03T14:56:48.544Z,39.50
2018-08-03T14:59:17.176Z,39.10
2018-08-03T15:01:45.816Z,38.80
2018-08-03T15:04:14.450Z,38.80
2018-08-03T15:06:42.998Z,38.70
2018-08-03T15:11:40.921Z,38.30
2018-08-03T15:14:09.648Z,37.90
2018-08-03T15:16:38.399Z,37.60
2018-08-03T15:19:07.311Z,37.20
2018-08-03T15:21:35.924Z,37.00
2018-08-03T15:24:04.577Z,36.70
2018-08-03T15:26:33.259Z,36.70
2018-08-03T15:29:01.831Z,36.90
2018-08-03T15:31:30.378Z,37.10
2018-08-03T15:33:59.038Z,37.10
2018-08-03T15:36:27.652Z,37.10
2018-08-03T15:38:56.245Z,37.20
2018-08-03T15:41:25.798Z,37.30
2018-08-03T15:43:54.968Z,37.50
2018-08-03T15:46:23.839Z,37.60
2018-08-03T15:48:52.403Z,37.80
2018-08-03T15:51:20.995Z,37.70
2018-08-03T15:53:49.610Z,37.90
2018-08-03T15:56:18.237Z,37.80
2018-08-03T15:58:46.874Z,37.80
2018-08-03T16:01:15.444Z,37.90
2018-08-03T16:03:44.069Z,37.60
2018-08-03T16:06:12.747Z,37.90
2018-08-03T16:08:41.296Z,38.40
2018-08-03T16:11:09.862Z,38.70
2018-08-03T16:16:06.772Z,39.90
2018-08-03T16:18:35.459Z,40.20
2018-08-03T16:21:04.117Z,40.70
2018-08-03T16:23:32.881Z,41.30
2018-08-03T16:26:01.476Z,41.10
2018-08-03T16:28:30.052Z,41.30
2018-08-03T16:30:58.685Z,41.30
2018-08-03T16:33:27.306Z,41.80
2018-08-03T16:35:56.256Z,42.10
2018-08-03T16:38:24.995Z,42.30
2018-08-03T16:40:55.101Z,42.70
2018-08-03T16:43:23.795Z,42.50
2018-08-03T16:45:55.912Z,41.90
2018-08-03T16:48:24.701Z,42.10
2018-08-03T16:50:53.388Z,42.40
2018-08-03T16:53:22.067Z,42.40
2018-08-03T16:55:51.831Z,42.30
2018-08-03T16:58:20.508Z,42.30
2018-08-03T17:00:49.124Z,42.40
2018-08-03T17:03:17.704Z,42.40
2018-08-03T17:05:46.286Z,42.10
2018-08-03T17:08:15.085Z,42.20
2018-08-03T17:10:43.745Z,41.90
2018-08-03T17:13:13.164Z,41.60
2018-08-03T17:15:41.729Z,41.20
2018-08-03T17:18:10.427Z,40.80
2018-08-03T17:20:39.047Z,40.60
2018-08-03T17:23:07.706Z,40.60
2018-08-03T17:25:36.348Z,40.50
2018-08-03T17:28:05.109Z,40.40
2018-08-03T17:30:33.817Z,40.40
2018-08-03T17:33:03.664Z,40.40
2018-08-03T17:38:00.608Z,40.50
2018-08-03T17:40:29.264Z,40.60
2018-08-03T17:42:57.905Z,40.70
2018-08-03T17:45:26.544Z,40.30
2018-08-03T17:47:55.171Z,40.30
2018-08-03T17:50:23.744Z,39.90
2018-08-03T17:52:52.384Z,39.80
2018-08-03T17:55:20.990Z,39.60
2018-08-03T17:57:49.533Z,39.20
2018-08-03T18:00:18.144Z,38.70
2018-08-03T18:02:46.839Z,38.20
2018-08-03T18:05:16.401Z,37.70
2018-08-03T18:07:44.940Z,37.10
2018-08-03T18:10:13.673Z,36.40
2018-08-03T18:12:42.429Z,35.70
2018-08-03T18:15:11.054Z,34.90
2018-08-03T18:17:39.757Z,34.10
2018-08-03T18:20:08.758Z,33.50
2018-08-03T18:22:38.497Z,33.00
2018-08-03T18:25:07.133Z,32.30
2018-08-03T18:27:35.738Z,31.80
2018-08-03T18:30:05.258Z,31.60
2018-08-03T18:32:33.843Z,31.30
2018-08-03T18:35:02.516Z,31.20
2018-08-03T18:37:31.207Z,30.90
2018-08-03T18:40:00.045Z,30.70
2018-08-03T18:42:29.721Z,30.40
2018-08-03T18:44:58.475Z,30.20
2018-08-03T18:47:27.568Z,30.00
2018-08-03T18:49:56.205Z,29.70
2018-08-03T18:52:24.761Z,29.60
2018-08-03T18:54:53.501Z,29.50
2018-08-03T18:57:22.100Z,29.30
2018-08-03T18:59:50.785Z,29.00
2018-08-03T19:02:19.661Z,28.90
2018-08-03T19:04:48.308Z,28.70
2018-08-03T19:07:16.905Z,28.60
2018-08-03T19:12:13.837Z,28.40
2018-08-03T19:14:42.502Z,28.10
2018-08-03T19:17:11.156Z,28.10
2018-08-03T19:19:39.799Z,28.00
2018-08-03T19:22:08.504Z,27.80
2018-08-03T19:24:37.077Z,27.70
2018-08-03T19:27:05.695Z,27.70
2018-08-03T19:29:35.322Z,27.60
2018-08-03T19:32:03.968Z,27.50
2018-08-03T19:34:32.503Z,27.30
2018-08-03T19:37:01.167Z,27.30
2018-08-03T19:39:29.877Z,27.10
2018-08-03T19:41:58.542Z,27.10
2018-08-03T19:44:27.227Z,27.00
2018-08-03T19:46:55.819Z,27.00
2018-08-03T19:49:24.449Z,27.00
2018-08-03T19:51:53.052Z,27.00
2018-08-03T19:56:50.020Z,26.90
2018-08-03T19:59:18.660Z,26.80
2018-08-03T20:01:47.447Z,26.80
2018-08-03T20:04:16.087Z,26.80
2018-08-03T20:06:44.699Z,26.80
2018-08-03T20:09:13.603Z,26.80
2018-08-03T20:11:42.195Z,26.80
2018-08-03T20:14:10.823Z,26.80
2018-08-03T20:16:39.435Z,26.70
2018-08-03T20:19:08.106Z,26.70
2018-08-03T20:21:37.778Z,26.60
2018-08-03T20:24:06.446Z,26.50
2018-08-03T20:26:35.000Z,26.60
2018-08-03T20:29:03.665Z,26.40
2018-08-03T20:31:32.324Z,26.40
2018-08-03T20:34:00.930Z,26.30
2018-08-03T20:36:29.571Z,26.10
2018-08-03T20:38:58.148Z,25.90
2018-08-03T20:41:26.837Z,25.70
2018-08-03T20:43:55.462Z,25.60
2018-08-03T20:46:24.246Z,25.60
2018-08-03T20:48:52.906Z,25.40
2018-08-03T20:51:21.550Z,25.30
2018-08-03T20:53:50.165Z,25.30
2018-08-03T20:56:18.951Z,25.30
2018-08-03T20:58:47.504Z,25.30
2018-08-03T21:01:16.161Z,25.30
2018-08-03T21:03:44.717Z,25.40
2018-08-03T21:06:13.327Z,25.40
2018-08-03T21:08:41.962Z,25.40
2018-08-03T21:11:10.599Z,25.40
2018-08-03T21:13:39.190Z,25.40
2018-08-03T21:16:07.791Z,25.30
2018-08-03T21:18:36.350Z,25.30
2018-08-03T21:21:04.985Z,25.30
2018-08-03T21:23:33.569Z,25.20
2018-08-03T21:26:02.249Z,25.00
2018-08-03T21:28:30.825Z,24.90
2018-08-03T21:30:59.464Z,24.90
2018-08-03T21:33:28.084Z,24.80
2018-08-03T21:35:56.684Z,24.60
2018-08-03T21:38:25.313Z,24.60
2018-08-03T21:40:54.063Z,24.50
2018-08-03T21:43:22.622Z,24.50
2018-08-03T21:45:51.257Z,24.50
2018-08-03T21:48:19.752Z,24.50
2018-08-03T21:50:48.432Z,24.30
2018-08-03T21:53:17.010Z,24.30
2018-08-03T21:55:45.653Z,24.40
2018-08-03T21:58:14.263Z,24.40
2018-08-03T22:00:42.890Z,24.30
2018-08-03T22:03:11.491Z,24.30
2018-08-03T22:05:40.205Z,24.20
2018-08-03T22:08:08.816Z,24.20
2018-08-03T22:10:37.452Z,24.30
2018-08-03T22:13:06.027Z,24.30
2018-08-03T22:15:34.694Z,24.30
2018-08-03T22:18:03.261Z,24.30
2018-08-03T22:20:31.903Z,24.20
2018-08-03T22:23:00.440Z,24.10
2018-08-03T22:25:29.037Z,24.10
2018-08-03T22:27:57.625Z,24.00
2018-08-03T22:30:26.234Z,24.00
2018-08-03T22:32:54.857Z,23.90
2018-08-03T22:35:23.402Z,23.80
2018-08-03T22:37:55.032Z,23.80
2018-08-03T22:40:23.612Z,23.80
2018-08-03T22:42:52.230Z,23.80
2018-08-03T22:45:20.848Z,23.80
2018-08-03T22:47:49.464Z,23.90
2018-08-03T22:50:18.058Z,23.80
2018-08-03T22:52:46.672Z,23.70
2018-08-03T22:55:15.232Z,23.70
2018-08-03T22:57:43.774Z,23.70
2018-08-03T23:00:12.383Z,23.60
2018-08-03T23:02:41.963Z,23.60
2018-08-03T23:05:10.570Z,23.50
2018-08-03T23:07:39.459Z,23.50
2018-08-03T23:10:08.400Z,23.50
2018-08-03T23:12:37.010Z,23.50
2018-08-03T23:15:06.073Z,23.50
2018-08-03T23:17:34.663Z,23.50
2018-08-03T23:20:03.237Z,23.40
2018-08-03T23:22:31.863Z,23.30
2018-08-03T23:25:00.881Z,23.20
2018-08-03T23:27:29.541Z,23.10
2018-08-03T23:29:58.160Z,23.00
2018-08-03T23:32:26.921Z,23.00
2018-08-03T23:37:23.761Z,22.80
2018-08-03T23:39:52.464Z,22.80
2018-08-03T23:42:21.079Z,22.90
2018-08-03T23:44:49.591Z,22.90
2018-08-03T23:47:18.212Z,22.80
2018-08-03T23:49:46.829Z,22.80
2018-08-03T23:52:15.428Z,22.80
2018-08-03T23:54:44.098Z,22.90
2018-08-03T23:57:12.725Z,23.00
2018-08-03T23:59:41.586Z,22.90
